sensor_id;sensor_type;location;lat;lon;timestamp;P1;durP1;ratioP1;P2;durP2;ratioP2
58581;SDS011;44361;51.476;5.700;2024-01-25T00:00:20;37.25;;;5.30;;
58581;SDS011;44361;51.476;5.700;2024-01-25T00:02:45;42.55;;;5.63;;
58581;SDS011;44361;51.476;5.700;2024-01-25T00:05:11;39.95;;;5.65;;
58581;SDS011;44361;51.476;5.700;2024-01-25T00:07:46;33.83;;;5.10;;
58581;SDS011;44361;51.476;5.700;2024-01-25T00:10:13;39.00;;;5.50;;
58581;SDS011;44361;51.476;5.700;2024-01-25T00:12:40;37.78;;;6.78;;
58581;SDS011;44361;51.476;5.700;2024-01-25T00:15:06;50.20;;;6.25;;
58581;SDS011;44361;51.476;5.700;2024-01-25T00:17:31;41.72;;;5.90;;
58581;SDS011;44361;51.476;5.700;2024-01-25T00:19:57;35.88;;;4.80;;
58581;SDS011;44361;51.476;5.700;2024-01-25T00:22:22;30.33;;;4.97;;
58581;SDS011;44361;51.476;5.700;2024-01-25T00:24:48;33.95;;;5.28;;
58581;SDS011;44361;51.476;5.700;2024-01-25T00:27:13;34.10;;;4.72;;
58581;SDS011;44361;51.476;5.700;2024-01-25T00:29:39;32.42;;;5.03;;
58581;SDS011;44361;51.476;5.700;2024-01-25T00:32:04;46.13;;;6.45;;
58581;SDS011;44361;51.476;5.700;2024-01-25T00:34:30;40.42;;;6.90;;
58581;SDS011;44361;51.476;5.700;2024-01-25T00:36:56;46.53;;;6.57;;
58581;SDS011;44361;51.476;5.700;2024-01-25T00:39:22;43.95;;;5.38;;
58581;SDS011;44361;51.476;5.700;2024-01-25T00:41:48;33.13;;;4.93;;
58581;SDS011;44361;51.476;5.700;2024-01-25T00:44:16;38.63;;;5.03;;
58581;SDS011;44361;51.476;5.700;2024-01-25T00:46:42;40.35;;;6.05;;
58581;SDS011;44361;51.476;5.700;2024-01-25T00:49:08;44.95;;;5.80;;
58581;SDS011;44361;51.476;5.700;2024-01-25T00:51:34;43.28;;;5.75;;
58581;SDS011;44361;51.476;5.700;2024-01-25T00:54:01;39.13;;;6.32;;
58581;SDS011;44361;51.476;5.700;2024-01-25T00:56:27;42.20;;;5.60;;
58581;SDS011;44361;51.476;5.700;2024-01-25T00:58:53;33.95;;;5.63;;
58581;SDS011;44361;51.476;5.700;2024-01-25T01:01:19;46.58;;;6.32;;
58581;SDS011;44361;51.476;5.700;2024-01-25T01:03:47;41.08;;;5.95;;
58581;SDS011;44361;51.476;5.700;2024-01-25T01:06:19;42.88;;;5.97;;
58581;SDS011;44361;51.476;5.700;2024-01-25T01:08:45;43.17;;;5.90;;
58581;SDS011;44361;51.476;5.700;2024-01-25T01:11:11;44.63;;;5.70;;
58581;SDS011;44361;51.476;5.700;2024-01-25T01:13:37;43.97;;;6.00;;
58581;SDS011;44361;51.476;5.700;2024-01-25T01:16:02;37.65;;;4.70;;
58581;SDS011;44361;51.476;5.700;2024-01-25T01:18:28;48.03;;;6.00;;
58581;SDS011;44361;51.476;5.700;2024-01-25T01:20:53;39.92;;;6.20;;
58581;SDS011;44361;51.476;5.700;2024-01-25T01:23:19;44.28;;;6.45;;
58581;SDS011;44361;51.476;5.700;2024-01-25T01:25:45;39.13;;;5.18;;
58581;SDS011;44361;51.476;5.700;2024-01-25T01:28:10;54.20;;;6.57;;
58581;SDS011;44361;51.476;5.700;2024-01-25T01:30:36;45.47;;;6.30;;
58581;SDS011;44361;51.476;5.700;2024-01-25T01:33:01;49.70;;;6.22;;
58581;SDS011;44361;51.476;5.700;2024-01-25T01:35:27;53.13;;;5.85;;
58581;SDS011;44361;51.476;5.700;2024-01-25T01:37:52;36.97;;;5.40;;
58581;SDS011;44361;51.476;5.700;2024-01-25T01:40:18;40.00;;;6.03;;
58581;SDS011;44361;51.476;5.700;2024-01-25T01:42:43;37.13;;;6.00;;
58581;SDS011;44361;51.476;5.700;2024-01-25T01:45:10;39.33;;;5.88;;
58581;SDS011;44361;51.476;5.700;2024-01-25T01:47:37;44.22;;;6.35;;
58581;SDS011;44361;51.476;5.700;2024-01-25T01:50:04;41.28;;;6.35;;
58581;SDS011;44361;51.476;5.700;2024-01-25T01:52:30;47.15;;;6.68;;
58581;SDS011;44361;51.476;5.700;2024-01-25T01:54:56;43.85;;;7.00;;
58581;SDS011;44361;51.476;5.700;2024-01-25T01:57:22;52.13;;;5.80;;
58581;SDS011;44361;51.476;5.700;2024-01-25T01:59:48;60.70;;;6.03;;
58581;SDS011;44361;51.476;5.700;2024-01-25T02:02:15;52.25;;;6.25;;
58581;SDS011;44361;51.476;5.700;2024-01-25T02:04:40;46.63;;;5.75;;
58581;SDS011;44361;51.476;5.700;2024-01-25T02:07:07;40.05;;;6.20;;
58581;SDS011;44361;51.476;5.700;2024-01-25T02:09:33;54.47;;;6.72;;
58581;SDS011;44361;51.476;5.700;2024-01-25T02:12:03;46.97;;;6.90;;
58581;SDS011;44361;51.476;5.700;2024-01-25T02:14:30;46.63;;;5.60;;
58581;SDS011;44361;51.476;5.700;2024-01-25T02:16:56;64.82;;;7.55;;
58581;SDS011;44361;51.476;5.700;2024-01-25T02:19:21;54.30;;;7.45;;
58581;SDS011;44361;51.476;5.700;2024-01-25T02:21:47;44.55;;;5.95;;
58581;SDS011;44361;51.476;5.700;2024-01-25T02:24:13;43.88;;;6.07;;
58581;SDS011;44361;51.476;5.700;2024-01-25T02:26:39;53.58;;;5.55;;
58581;SDS011;44361;51.476;5.700;2024-01-25T02:29:04;64.13;;;7.40;;
58581;SDS011;44361;51.476;5.700;2024-01-25T02:31:32;56.13;;;6.35;;
58581;SDS011;44361;51.476;5.700;2024-01-25T02:33:58;57.03;;;6.97;;
58581;SDS011;44361;51.476;5.700;2024-01-25T02:36:23;50.50;;;6.28;;
58581;SDS011;44361;51.476;5.700;2024-01-25T02:38:49;53.50;;;7.50;;
58581;SDS011;44361;51.476;5.700;2024-01-25T02:41:14;50.88;;;5.90;;
58581;SDS011;44361;51.476;5.700;2024-01-25T02:43:40;49.72;;;7.45;;
58581;SDS011;44361;51.476;5.700;2024-01-25T02:46:05;41.85;;;5.85;;
58581;SDS011;44361;51.476;5.700;2024-01-25T02:48:32;53.10;;;6.50;;
58581;SDS011;44361;51.476;5.700;2024-01-25T02:50:58;48.58;;;5.45;;
58581;SDS011;44361;51.476;5.700;2024-01-25T02:53:24;45.40;;;6.18;;
58581;SDS011;44361;51.476;5.700;2024-01-25T02:55:49;50.22;;;6.93;;
58581;SDS011;44361;51.476;5.700;2024-01-25T02:58:15;44.05;;;5.75;;
58581;SDS011;44361;51.476;5.700;2024-01-25T03:00:40;55.55;;;6.50;;
58581;SDS011;44361;51.476;5.700;2024-01-25T03:03:06;49.60;;;7.22;;
58581;SDS011;44361;51.476;5.700;2024-01-25T03:05:31;56.72;;;6.70;;
58581;SDS011;44361;51.476;5.700;2024-01-25T03:07:57;61.53;;;6.80;;
58581;SDS011;44361;51.476;5.700;2024-01-25T03:10:23;60.10;;;7.13;;
58581;SDS011;44361;51.476;5.700;2024-01-25T03:12:49;55.92;;;6.68;;
58581;SDS011;44361;51.476;5.700;2024-01-25T03:15:14;65.88;;;6.85;;
58581;SDS011;44361;51.476;5.700;2024-01-25T03:17:40;53.38;;;5.75;;
58581;SDS011;44361;51.476;5.700;2024-01-25T03:20:05;56.42;;;6.53;;
58581;SDS011;44361;51.476;5.700;2024-01-25T03:22:32;58.40;;;6.75;;
58581;SDS011;44361;51.476;5.700;2024-01-25T03:24:57;55.70;;;6.90;;
58581;SDS011;44361;51.476;5.700;2024-01-25T03:27:23;40.05;;;5.85;;
58581;SDS011;44361;51.476;5.700;2024-01-25T03:29:48;54.58;;;6.90;;
58581;SDS011;44361;51.476;5.700;2024-01-25T03:32:14;42.58;;;5.53;;
58581;SDS011;44361;51.476;5.700;2024-01-25T03:34:39;48.15;;;7.22;;
58581;SDS011;44361;51.476;5.700;2024-01-25T03:37:05;52.78;;;5.75;;
58581;SDS011;44361;51.476;5.700;2024-01-25T03:39:31;59.25;;;6.68;;
58581;SDS011;44361;51.476;5.700;2024-01-25T03:41:56;45.47;;;5.03;;
58581;SDS011;44361;51.476;5.700;2024-01-25T03:44:22;58.45;;;6.75;;
58581;SDS011;44361;51.476;5.700;2024-01-25T03:46:47;46.58;;;5.65;;
58581;SDS011;44361;51.476;5.700;2024-01-25T03:49:13;50.65;;;5.85;;
58581;SDS011;44361;51.476;5.700;2024-01-25T03:51:38;36.10;;;6.05;;
58581;SDS011;44361;51.476;5.700;2024-01-25T03:54:04;52.08;;;6.10;;
58581;SDS011;44361;51.476;5.700;2024-01-25T03:56:29;46.03;;;5.80;;
58581;SDS011;44361;51.476;5.700;2024-01-25T03:58:55;48.60;;;5.65;;
58581;SDS011;44361;51.476;5.700;2024-01-25T04:01:20;46.90;;;5.88;;
58581;SDS011;44361;51.476;5.700;2024-01-25T04:03:46;48.78;;;5.78;;
58581;SDS011;44361;51.476;5.700;2024-01-25T04:06:12;57.55;;;6.80;;
58581;SDS011;44361;51.476;5.700;2024-01-25T04:08:37;40.25;;;5.68;;
58581;SDS011;44361;51.476;5.700;2024-01-25T04:11:03;49.97;;;7.60;;
58581;SDS011;44361;51.476;5.700;2024-01-25T04:13:29;55.00;;;6.43;;
58581;SDS011;44361;51.476;5.700;2024-01-25T04:15:54;44.10;;;6.60;;
58581;SDS011;44361;51.476;5.700;2024-01-25T04:18:20;47.80;;;8.10;;
58581;SDS011;44361;51.476;5.700;2024-01-25T04:20:45;49.95;;;6.25;;
58581;SDS011;44361;51.476;5.700;2024-01-25T04:23:12;55.50;;;6.90;;
58581;SDS011;44361;51.476;5.700;2024-01-25T04:25:37;54.45;;;5.65;;
58581;SDS011;44361;51.476;5.700;2024-01-25T04:28:03;52.88;;;6.82;;
58581;SDS011;44361;51.476;5.700;2024-01-25T04:30:28;47.42;;;6.90;;
58581;SDS011;44361;51.476;5.700;2024-01-25T04:32:56;45.88;;;7.05;;
58581;SDS011;44361;51.476;5.700;2024-01-25T04:35:21;49.35;;;6.85;;
58581;SDS011;44361;51.476;5.700;2024-01-25T04:37:47;52.63;;;7.10;;
58581;SDS011;44361;51.476;5.700;2024-01-25T04:40:12;56.22;;;7.05;;
58581;SDS011;44361;51.476;5.700;2024-01-25T04:42:38;49.83;;;7.20;;
58581;SDS011;44361;51.476;5.700;2024-01-25T04:45:03;46.80;;;7.10;;
58581;SDS011;44361;51.476;5.700;2024-01-25T04:47:29;47.72;;;5.75;;
58581;SDS011;44361;51.476;5.700;2024-01-25T04:49:56;47.03;;;5.68;;
58581;SDS011;44361;51.476;5.700;2024-01-25T04:52:21;37.20;;;5.60;;
58581;SDS011;44361;51.476;5.700;2024-01-25T04:54:47;50.72;;;5.38;;
58581;SDS011;44361;51.476;5.700;2024-01-25T04:57:12;47.40;;;5.20;;
58581;SDS011;44361;51.476;5.700;2024-01-25T04:59:38;50.75;;;6.07;;
58581;SDS011;44361;51.476;5.700;2024-01-25T05:02:03;48.92;;;6.68;;
58581;SDS011;44361;51.476;5.700;2024-01-25T05:04:29;45.33;;;6.32;;
58581;SDS011;44361;51.476;5.700;2024-01-25T05:06:57;46.28;;;7.20;;
58581;SDS011;44361;51.476;5.700;2024-01-25T05:09:23;35.85;;;6.25;;
58581;SDS011;44361;51.476;5.700;2024-01-25T05:11:48;57.20;;;7.72;;
58581;SDS011;44361;51.476;5.700;2024-01-25T05:14:14;49.88;;;6.15;;
58581;SDS011;44361;51.476;5.700;2024-01-25T05:16:39;60.97;;;6.47;;
58581;SDS011;44361;51.476;5.700;2024-01-25T05:19:05;45.67;;;6.78;;
58581;SDS011;44361;51.476;5.700;2024-01-25T05:21:31;62.70;;;6.85;;
58581;SDS011;44361;51.476;5.700;2024-01-25T05:23:56;53.30;;;7.10;;
58581;SDS011;44361;51.476;5.700;2024-01-25T05:26:22;42.28;;;7.05;;
58581;SDS011;44361;51.476;5.700;2024-01-25T05:28:47;51.35;;;6.30;;
58581;SDS011;44361;51.476;5.700;2024-01-25T05:31:13;49.95;;;7.93;;
58581;SDS011;44361;51.476;5.700;2024-01-25T05:33:39;60.08;;;6.03;;
58581;SDS011;44361;51.476;5.700;2024-01-25T05:36:05;45.63;;;7.00;;
58581;SDS011;44361;51.476;5.700;2024-01-25T05:38:31;43.75;;;6.57;;
58581;SDS011;44361;51.476;5.700;2024-01-25T05:40:57;62.67;;;6.53;;
58581;SDS011;44361;51.476;5.700;2024-01-25T05:43:23;75.78;;;9.65;;
58581;SDS011;44361;51.476;5.700;2024-01-25T05:45:48;66.40;;;7.63;;
58581;SDS011;44361;51.476;5.700;2024-01-25T05:48:14;58.70;;;6.88;;
58581;SDS011;44361;51.476;5.700;2024-01-25T05:50:40;61.47;;;7.47;;
58581;SDS011;44361;51.476;5.700;2024-01-25T05:53:05;40.97;;;6.43;;
58581;SDS011;44361;51.476;5.700;2024-01-25T05:55:31;61.67;;;7.28;;
58581;SDS011;44361;51.476;5.700;2024-01-25T05:57:57;59.25;;;7.43;;
58581;SDS011;44361;51.476;5.700;2024-01-25T06:00:22;65.10;;;7.82;;
58581;SDS011;44361;51.476;5.700;2024-01-25T06:02:48;72.88;;;8.13;;
58581;SDS011;44361;51.476;5.700;2024-01-25T06:05:13;44.42;;;6.43;;
58581;SDS011;44361;51.476;5.700;2024-01-25T06:07:39;50.65;;;7.47;;
58581;SDS011;44361;51.476;5.700;2024-01-25T06:10:06;46.97;;;6.45;;
58581;SDS011;44361;51.476;5.700;2024-01-25T06:12:32;57.22;;;7.25;;
58581;SDS011;44361;51.476;5.700;2024-01-25T06:14:57;51.30;;;7.15;;
58581;SDS011;44361;51.476;5.700;2024-01-25T06:17:23;62.22;;;8.43;;
58581;SDS011;44361;51.476;5.700;2024-01-25T06:19:49;63.47;;;7.90;;
58581;SDS011;44361;51.476;5.700;2024-01-25T06:22:14;50.85;;;7.18;;
58581;SDS011;44361;51.476;5.700;2024-01-25T06:24:41;49.13;;;7.65;;
58581;SDS011;44361;51.476;5.700;2024-01-25T06:27:07;44.83;;;6.88;;
58581;SDS011;44361;51.476;5.700;2024-01-25T06:29:36;47.75;;;6.93;;
58581;SDS011;44361;51.476;5.700;2024-01-25T06:32:02;57.83;;;7.57;;
58581;SDS011;44361;51.476;5.700;2024-01-25T06:34:27;56.28;;;7.57;;
58581;SDS011;44361;51.476;5.700;2024-01-25T06:36:53;39.67;;;6.30;;
58581;SDS011;44361;51.476;5.700;2024-01-25T06:39:19;47.58;;;7.45;;
58581;SDS011;44361;51.476;5.700;2024-01-25T06:41:44;50.25;;;5.88;;
58581;SDS011;44361;51.476;5.700;2024-01-25T06:44:10;46.78;;;7.13;;
58581;SDS011;44361;51.476;5.700;2024-01-25T06:46:36;54.30;;;6.72;;
58581;SDS011;44361;51.476;5.700;2024-01-25T06:49:01;38.50;;;5.85;;
58581;SDS011;44361;51.476;5.700;2024-01-25T06:51:27;60.30;;;7.53;;
58581;SDS011;44361;51.476;5.700;2024-01-25T06:53:53;51.13;;;7.95;;
58581;SDS011;44361;51.476;5.700;2024-01-25T06:56:19;55.80;;;7.65;;
58581;SDS011;44361;51.476;5.700;2024-01-25T06:58:44;50.28;;;7.75;;
58581;SDS011;44361;51.476;5.700;2024-01-25T07:01:10;52.53;;;6.68;;
58581;SDS011;44361;51.476;5.700;2024-01-25T07:03:35;40.90;;;6.20;;
58581;SDS011;44361;51.476;5.700;2024-01-25T07:06:01;43.65;;;7.05;;
58581;SDS011;44361;51.476;5.700;2024-01-25T07:08:27;64.78;;;8.75;;
58581;SDS011;44361;51.476;5.700;2024-01-25T07:10:52;55.80;;;8.30;;
58581;SDS011;44361;51.476;5.700;2024-01-25T07:13:18;54.15;;;7.50;;
58581;SDS011;44361;51.476;5.700;2024-01-25T07:15:43;51.05;;;8.25;;
58581;SDS011;44361;51.476;5.700;2024-01-25T07:18:10;58.20;;;8.40;;
58581;SDS011;44361;51.476;5.700;2024-01-25T07:20:36;49.90;;;7.60;;
58581;SDS011;44361;51.476;5.700;2024-01-25T07:23:01;46.33;;;7.85;;
58581;SDS011;44361;51.476;5.700;2024-01-25T07:25:27;49.17;;;9.27;;
58581;SDS011;44361;51.476;5.700;2024-01-25T07:27:52;49.55;;;10.05;;
58581;SDS011;44361;51.476;5.700;2024-01-25T07:30:18;46.00;;;8.38;;
58581;SDS011;44361;51.476;5.700;2024-01-25T07:32:44;56.70;;;10.25;;
58581;SDS011;44361;51.476;5.700;2024-01-25T07:35:11;57.15;;;10.52;;
58581;SDS011;44361;51.476;5.700;2024-01-25T07:37:37;66.97;;;8.85;;
58581;SDS011;44361;51.476;5.700;2024-01-25T07:40:05;73.10;;;9.68;;
58581;SDS011;44361;51.476;5.700;2024-01-25T07:42:31;60.00;;;9.10;;
58581;SDS011;44361;51.476;5.700;2024-01-25T07:44:57;50.33;;;9.55;;
58581;SDS011;44361;51.476;5.700;2024-01-25T07:47:23;52.88;;;8.77;;
58581;SDS011;44361;51.476;5.700;2024-01-25T07:49:48;56.90;;;9.13;;
58581;SDS011;44361;51.476;5.700;2024-01-25T07:52:14;69.57;;;9.73;;
58581;SDS011;44361;51.476;5.700;2024-01-25T07:54:40;64.63;;;9.35;;
58581;SDS011;44361;51.476;5.700;2024-01-25T07:57:05;66.90;;;13.80;;
58581;SDS011;44361;51.476;5.700;2024-01-25T07:59:31;72.43;;;10.40;;
58581;SDS011;44361;51.476;5.700;2024-01-25T08:01:56;52.25;;;9.25;;
58581;SDS011;44361;51.476;5.700;2024-01-25T08:04:22;69.10;;;10.75;;
58581;SDS011;44361;51.476;5.700;2024-01-25T08:06:48;67.38;;;10.57;;
58581;SDS011;44361;51.476;5.700;2024-01-25T08:09:13;65.25;;;10.45;;
58581;SDS011;44361;51.476;5.700;2024-01-25T08:11:39;60.28;;;9.77;;
58581;SDS011;44361;51.476;5.700;2024-01-25T08:14:05;62.50;;;9.55;;
58581;SDS011;44361;51.476;5.700;2024-01-25T08:16:30;67.32;;;11.25;;
58581;SDS011;44361;51.476;5.700;2024-01-25T08:18:56;60.38;;;10.63;;
58581;SDS011;44361;51.476;5.700;2024-01-25T08:21:23;60.03;;;9.95;;
58581;SDS011;44361;51.476;5.700;2024-01-25T08:23:49;73.97;;;10.75;;
58581;SDS011;44361;51.476;5.700;2024-01-25T08:26:14;69.72;;;10.23;;
58581;SDS011;44361;51.476;5.700;2024-01-25T08:28:40;59.13;;;11.40;;
58581;SDS011;44361;51.476;5.700;2024-01-25T08:31:08;70.90;;;12.07;;
58581;SDS011;44361;51.476;5.700;2024-01-25T08:33:34;69.90;;;12.50;;
58581;SDS011;44361;51.476;5.700;2024-01-25T08:35:59;79.15;;;12.68;;
58581;SDS011;44361;51.476;5.700;2024-01-25T08:38:25;83.40;;;12.98;;
58581;SDS011;44361;51.476;5.700;2024-01-25T08:40:51;92.07;;;14.57;;
58581;SDS011;44361;51.476;5.700;2024-01-25T08:43:16;87.20;;;14.07;;
58581;SDS011;44361;51.476;5.700;2024-01-25T08:45:42;89.32;;;14.40;;
58581;SDS011;44361;51.476;5.700;2024-01-25T08:48:08;67.47;;;14.40;;
58581;SDS011;44361;51.476;5.700;2024-01-25T08:50:34;86.85;;;16.67;;
58581;SDS011;44361;51.476;5.700;2024-01-25T08:53:00;79.88;;;13.70;;
58581;SDS011;44361;51.476;5.700;2024-01-25T08:55:26;86.45;;;14.63;;
58581;SDS011;44361;51.476;5.700;2024-01-25T08:57:52;92.72;;;17.92;;
58581;SDS011;44361;51.476;5.700;2024-01-25T09:00:17;79.28;;;14.43;;
58581;SDS011;44361;51.476;5.700;2024-01-25T09:02:43;82.28;;;15.93;;
58581;SDS011;44361;51.476;5.700;2024-01-25T09:05:09;98.53;;;16.38;;
58581;SDS011;44361;51.476;5.700;2024-01-25T09:07:35;98.47;;;17.98;;
58581;SDS011;44361;51.476;5.700;2024-01-25T09:10:01;70.13;;;16.33;;
58581;SDS011;44361;51.476;5.700;2024-01-25T09:12:27;72.50;;;15.85;;
58581;SDS011;44361;51.476;5.700;2024-01-25T09:14:52;75.68;;;16.30;;
58581;SDS011;44361;51.476;5.700;2024-01-25T09:17:18;72.28;;;17.20;;
58581;SDS011;44361;51.476;5.700;2024-01-25T09:19:50;77.80;;;17.55;;
58581;SDS011;44361;51.476;5.700;2024-01-25T09:22:16;68.75;;;17.63;;
58581;SDS011;44361;51.476;5.700;2024-01-25T09:24:44;62.67;;;17.15;;
58581;SDS011;44361;51.476;5.700;2024-01-25T09:27:10;75.05;;;17.92;;
58581;SDS011;44361;51.476;5.700;2024-01-25T09:29:37;74.72;;;17.15;;
58581;SDS011;44361;51.476;5.700;2024-01-25T09:32:04;76.20;;;17.42;;
58581;SDS011;44361;51.476;5.700;2024-01-25T09:34:31;57.95;;;16.85;;
58581;SDS011;44361;51.476;5.700;2024-01-25T09:36:56;62.03;;;17.25;;
58581;SDS011;44361;51.476;5.700;2024-01-25T09:39:22;69.93;;;19.60;;
58581;SDS011;44361;51.476;5.700;2024-01-25T09:41:48;60.38;;;17.48;;
58581;SDS011;44361;51.476;5.700;2024-01-25T09:44:13;72.35;;;19.02;;
58581;SDS011;44361;51.476;5.700;2024-01-25T09:46:39;71.10;;;19.23;;
58581;SDS011;44361;51.476;5.700;2024-01-25T09:49:06;62.03;;;17.70;;
58581;SDS011;44361;51.476;5.700;2024-01-25T09:51:42;68.10;;;18.20;;
58581;SDS011;44361;51.476;5.700;2024-01-25T09:54:08;66.30;;;19.02;;
58581;SDS011;44361;51.476;5.700;2024-01-25T09:56:35;76.80;;;19.58;;
58581;SDS011;44361;51.476;5.700;2024-01-25T09:59:01;71.47;;;20.08;;
58581;SDS011;44361;51.476;5.700;2024-01-25T10:01:27;61.15;;;18.65;;
58581;SDS011;44361;51.476;5.700;2024-01-25T10:03:53;70.50;;;18.08;;
58581;SDS011;44361;51.476;5.700;2024-01-25T10:06:21;58.40;;;18.52;;
58581;SDS011;44361;51.476;5.700;2024-01-25T10:08:47;69.88;;;19.65;;
58581;SDS011;44361;51.476;5.700;2024-01-25T10:11:13;63.85;;;19.58;;
58581;SDS011;44361;51.476;5.700;2024-01-25T10:13:42;62.72;;;19.40;;
58581;SDS011;44361;51.476;5.700;2024-01-25T10:16:16;69.88;;;19.92;;
58581;SDS011;44361;51.476;5.700;2024-01-25T10:18:43;62.10;;;18.58;;
58581;SDS011;44361;51.476;5.700;2024-01-25T10:21:10;74.28;;;18.90;;
58581;SDS011;44361;51.476;5.700;2024-01-25T10:23:37;65.00;;;18.58;;
58581;SDS011;44361;51.476;5.700;2024-01-25T10:26:03;54.03;;;17.83;;
58581;SDS011;44361;51.476;5.700;2024-01-25T10:28:29;66.63;;;19.55;;
58581;SDS011;44361;51.476;5.700;2024-01-25T10:31:00;70.10;;;20.30;;
58581;SDS011;44361;51.476;5.700;2024-01-25T10:33:27;69.22;;;19.60;;
58581;SDS011;44361;51.476;5.700;2024-01-25T10:36:11;64.80;;;19.65;;
58581;SDS011;44361;51.476;5.700;2024-01-25T10:38:38;76.13;;;20.42;;
58581;SDS011;44361;51.476;5.700;2024-01-25T10:41:05;67.68;;;19.85;;
58581;SDS011;44361;51.476;5.700;2024-01-25T10:43:31;60.45;;;20.45;;
58581;SDS011;44361;51.476;5.700;2024-01-25T10:45:57;59.65;;;18.98;;
58581;SDS011;44361;51.476;5.700;2024-01-25T10:48:27;56.70;;;19.27;;
58581;SDS011;44361;51.476;5.700;2024-01-25T10:50:54;51.40;;;17.65;;
58581;SDS011;44361;51.476;5.700;2024-01-25T10:53:23;53.85;;;17.90;;
58581;SDS011;44361;51.476;5.700;2024-01-25T10:55:50;52.33;;;17.23;;
58581;SDS011;44361;51.476;5.700;2024-01-25T10:58:16;47.03;;;16.67;;
58581;SDS011;44361;51.476;5.700;2024-01-25T11:00:49;54.47;;;16.95;;
58581;SDS011;44361;51.476;5.700;2024-01-25T11:03:17;55.17;;;16.60;;
58581;SDS011;44361;51.476;5.700;2024-01-25T11:05:43;51.17;;;16.42;;
58581;SDS011;44361;51.476;5.700;2024-01-25T11:08:16;59.47;;;17.50;;
58581;SDS011;44361;51.476;5.700;2024-01-25T11:10:51;59.88;;;16.48;;
58581;SDS011;44361;51.476;5.700;2024-01-25T11:13:23;55.55;;;18.85;;
58581;SDS011;44361;51.476;5.700;2024-01-25T11:15:50;63.42;;;18.35;;
58581;SDS011;44361;51.476;5.700;2024-01-25T11:18:17;54.60;;;18.30;;
58581;SDS011;44361;51.476;5.700;2024-01-25T11:20:42;68.70;;;19.42;;
58581;SDS011;44361;51.476;5.700;2024-01-25T11:23:11;64.35;;;19.35;;
58581;SDS011;44361;51.476;5.700;2024-01-25T11:25:43;63.13;;;19.50;;
58581;SDS011;44361;51.476;5.700;2024-01-25T11:28:10;62.83;;;19.67;;
58581;SDS011;44361;51.476;5.700;2024-01-25T11:30:38;62.50;;;19.40;;
58581;SDS011;44361;51.476;5.700;2024-01-25T11:33:05;70.97;;;20.45;;
58581;SDS011;44361;51.476;5.700;2024-01-25T11:35:32;56.25;;;19.73;;
58581;SDS011;44361;51.476;5.700;2024-01-25T11:37:58;55.85;;;19.58;;
58581;SDS011;44361;51.476;5.700;2024-01-25T11:40:25;65.70;;;20.05;;
58581;SDS011;44361;51.476;5.700;2024-01-25T11:42:50;48.90;;;17.15;;
58581;SDS011;44361;51.476;5.700;2024-01-25T11:45:16;55.88;;;16.48;;
58581;SDS011;44361;51.476;5.700;2024-01-25T11:47:42;45.78;;;14.50;;
58581;SDS011;44361;51.476;5.700;2024-01-25T11:50:09;41.50;;;13.45;;
58581;SDS011;44361;51.476;5.700;2024-01-25T11:52:36;40.22;;;12.68;;
58581;SDS011;44361;51.476;5.700;2024-01-25T11:55:06;39.92;;;12.43;;
58581;SDS011;44361;51.476;5.700;2024-01-25T11:57:39;46.47;;;13.85;;
58581;SDS011;44361;51.476;5.700;2024-01-25T12:00:09;51.88;;;13.05;;
58581;SDS011;44361;51.476;5.700;2024-01-25T12:02:38;44.20;;;12.05;;
58581;SDS011;44361;51.476;5.700;2024-01-25T12:05:05;46.78;;;13.35;;
58581;SDS011;44361;51.476;5.700;2024-01-25T12:07:31;43.13;;;12.65;;
58581;SDS011;44361;51.476;5.700;2024-01-25T12:10:04;45.33;;;13.98;;
58581;SDS011;44361;51.476;5.700;2024-01-25T12:12:31;45.50;;;12.50;;
58581;SDS011;44361;51.476;5.700;2024-01-25T12:15:00;37.08;;;12.20;;
58581;SDS011;44361;51.476;5.700;2024-01-25T12:17:28;35.45;;;11.73;;
58581;SDS011;44361;51.476;5.700;2024-01-25T12:19:56;43.67;;;12.82;;
58581;SDS011;44361;51.476;5.700;2024-01-25T12:22:28;39.28;;;12.95;;
58581;SDS011;44361;51.476;5.700;2024-01-25T12:24:55;51.47;;;15.68;;
58581;SDS011;44361;51.476;5.700;2024-01-25T12:27:21;44.65;;;15.52;;
58581;SDS011;44361;51.476;5.700;2024-01-25T12:29:47;47.75;;;15.02;;
58581;SDS011;44361;51.476;5.700;2024-01-25T12:32:13;40.17;;;12.82;;
58581;SDS011;44361;51.476;5.700;2024-01-25T12:34:39;47.20;;;13.02;;
58581;SDS011;44361;51.476;5.700;2024-01-25T12:37:06;48.75;;;14.93;;
58581;SDS011;44361;51.476;5.700;2024-01-25T12:39:32;50.20;;;16.58;;
58581;SDS011;44361;51.476;5.700;2024-01-25T12:41:58;52.55;;;16.30;;
58581;SDS011;44361;51.476;5.700;2024-01-25T12:44:23;49.60;;;14.55;;
58581;SDS011;44361;51.476;5.700;2024-01-25T12:46:49;47.80;;;13.43;;
58581;SDS011;44361;51.476;5.700;2024-01-25T12:49:15;49.60;;;12.38;;
58581;SDS011;44361;51.476;5.700;2024-01-25T12:51:40;32.08;;;11.10;;
58581;SDS011;44361;51.476;5.700;2024-01-25T12:54:06;41.33;;;11.18;;
58581;SDS011;44361;51.476;5.700;2024-01-25T12:56:32;34.45;;;11.82;;
58581;SDS011;44361;51.476;5.700;2024-01-25T12:58:58;43.50;;;12.20;;
58581;SDS011;44361;51.476;5.700;2024-01-25T13:01:23;46.53;;;12.15;;
58581;SDS011;44361;51.476;5.700;2024-01-25T13:03:49;35.13;;;11.60;;
58581;SDS011;44361;51.476;5.700;2024-01-25T13:06:15;31.13;;;11.50;;
58581;SDS011;44361;51.476;5.700;2024-01-25T13:08:40;44.05;;;12.15;;
58581;SDS011;44361;51.476;5.700;2024-01-25T13:11:06;34.20;;;10.85;;
58581;SDS011;44361;51.476;5.700;2024-01-25T13:13:32;40.35;;;12.18;;
58581;SDS011;44361;51.476;5.700;2024-01-25T13:15:57;40.08;;;12.20;;
58581;SDS011;44361;51.476;5.700;2024-01-25T13:18:23;38.13;;;11.23;;
58581;SDS011;44361;51.476;5.700;2024-01-25T13:20:49;49.50;;;12.50;;
58581;SDS011;44361;51.476;5.700;2024-01-25T13:23:14;40.65;;;14.00;;
58581;SDS011;44361;51.476;5.700;2024-01-25T13:25:40;36.40;;;11.02;;
58581;SDS011;44361;51.476;5.700;2024-01-25T13:28:05;35.97;;;11.63;;
58581;SDS011;44361;51.476;5.700;2024-01-25T13:30:31;40.30;;;12.75;;
58581;SDS011;44361;51.476;5.700;2024-01-25T13:32:57;39.08;;;11.20;;
58581;SDS011;44361;51.476;5.700;2024-01-25T13:35:22;38.58;;;12.60;;
58581;SDS011;44361;51.476;5.700;2024-01-25T13:37:48;47.03;;;13.07;;
58581;SDS011;44361;51.476;5.700;2024-01-25T13:40:13;40.90;;;12.77;;
58581;SDS011;44361;51.476;5.700;2024-01-25T13:42:39;46.83;;;12.45;;
58581;SDS011;44361;51.476;5.700;2024-01-25T13:45:06;42.05;;;11.82;;
58581;SDS011;44361;51.476;5.700;2024-01-25T13:47:32;44.13;;;13.55;;
58581;SDS011;44361;51.476;5.700;2024-01-25T13:49:57;44.08;;;13.75;;
58581;SDS011;44361;51.476;5.700;2024-01-25T13:52:23;46.05;;;12.60;;
58581;SDS011;44361;51.476;5.700;2024-01-25T13:54:49;42.90;;;13.15;;
58581;SDS011;44361;51.476;5.700;2024-01-25T13:57:14;44.67;;;13.93;;
58581;SDS011;44361;51.476;5.700;2024-01-25T13:59:40;49.45;;;13.68;;
58581;SDS011;44361;51.476;5.700;2024-01-25T14:02:06;54.17;;;14.02;;
58581;SDS011;44361;51.476;5.700;2024-01-25T14:04:32;50.53;;;13.82;;
58581;SDS011;44361;51.476;5.700;2024-01-25T14:06:57;43.95;;;14.60;;
58581;SDS011;44361;51.476;5.700;2024-01-25T14:09:23;49.75;;;14.25;;
58581;SDS011;44361;51.476;5.700;2024-01-25T14:11:48;44.33;;;12.77;;
58581;SDS011;44361;51.476;5.700;2024-01-25T14:14:14;48.47;;;14.32;;
58581;SDS011;44361;51.476;5.700;2024-01-25T14:16:40;50.38;;;13.82;;
58581;SDS011;44361;51.476;5.700;2024-01-25T14:19:05;49.95;;;14.45;;
58581;SDS011;44361;51.476;5.700;2024-01-25T14:21:31;48.47;;;14.48;;